Time;durP1;ratioP1;P1;durP2;ratioP2;P2;SDS_P1;SDS_P2;PMS_P1;PMS_P2;Temp;Humidity;BMP_temperature;BMP_pressure;BME280_temperature;BME280_humidity;BME280_pressure;Samples;Min_cycle;Max_cycle;Signal;HPM_P1;HPM_P2
2022/01/16 10:15:29;;;;;;;10.32;2.10;;;12.00;99.90;;;;;;6223763;22;20035;-63
2022/01/16 10:17:59;;;;;;;8.48;2.65;;;12.10;99.90;;;;;;6247162;23;20337;-63
2022/01/16 10:20:28;;;;;;;4.72;1.77;;;12.10;99.90;;;;;;6247122;23;20448;-63
2022/01/16 10:22:57;;;;;;;3.63;1.63;;;12.30;99.90;;;;;;6220379;23;20080;-63
2022/01/16 10:25:44;;;;;;;2.72;1.45;;;12.40;99.90;;;;;;6247268;23;20329;-63
2022/01/16 10:28:16;;;;;;;6.72;1.88;;;12.50;99.90;;;;;;6247641;23;20456;-63
2022/01/16 10:30:55;;;;;;;4.55;2.17;;;12.60;99.90;;;;;;6247594;23;20004;-63
2022/01/16 10:33:24;;;;;;;4.03;1.83;;;12.60;99.90;;;;;;6247270;23;20069;-63
2022/01/16 10:35:55;;;;;;;4.22;2.00;;;12.60;99.90;;;;;;6247531;23;20389;-63
2022/01/16 10:38:31;;;;;;;5.93;2.58;;;12.60;99.90;;;;;;6247405;23;20307;-63
2022/01/16 10:41:00;;;;;;;4.85;2.03;;;12.70;99.90;;;;;;6246984;23;20409;-63
2022/01/16 10:43:43;;;;;;;4.30;1.80;;;12.70;99.90;;;;;;6247379;23;20004;-62
2022/01/16 10:46:12;;;;;;;3.90;1.88;;;12.70;99.90;;;;;;6247418;23;20039;-63
2022/01/16 10:48:39;;;;;;;4.55;1.80;;;12.80;99.90;;;;;;6246999;23;20019;-62
2022/01/16 10:51:19;;;;;;;4.30;1.80;;;12.70;99.90;;;;;;6247000;23;20004;-63
2022/01/16 10:53:46;;;;;;;5.80;2.80;;;12.80;99.90;;;;;;6246937;23;20401;-63
2022/01/16 10:56:12;;;;;;;4.03;1.83;;;12.90;99.90;;;;;;6246899;23;20082;-62
2022/01/16 10:58:42;;;;;;;8.45;1.75;;;13.00;99.90;;;;;;6246706;23;20000;-63
2022/01/16 11:01:16;;;;;;;6.82;2.17;;;13.00;99.90;;;;;;6220579;23;20097;-62
2022/01/16 11:03:58;;;;;;;5.18;2.40;;;13.00;99.90;;;;;;6246786;23;20054;-62
2022/01/16 11:06:28;;;;;;;3.17;2.08;;;13.10;99.90;;;;;;6246926;23;20004;-62
2022/01/16 11:08:57;;;;;;;3.65;2.38;;;13.20;99.90;;;;;;6247210;23;20068;-62
2022/01/16 11:11:27;;;;;;;5.18;1.83;;;13.30;99.90;;;;;;6246766;23;20465;-62
2022/01/16 11:13:56;;;;;;;6.95;1.65;;;13.50;99.90;;;;;;6246210;23;20007;-63
2022/01/16 11:16:24;;;;;;;5.20;2.22;;;13.70;99.90;;;;;;6246596;23;20027;-63
2022/01/16 11:18:51;;;;;;;9.02;2.90;;;13.70;99.90;;;;;;6246570;23;20015;-63
2022/01/16 11:21:31;;;;;;;4.82;2.58;;;13.90;99.90;;;;;;6246626;23;20012;-63
2022/01/16 11:26:28;;;;;;;8.23;2.13;;;13.90;99.90;;;;;;6246655;23;20392;-63
2022/01/16 11:28:56;;;;;;;6.15;1.90;;;13.90;99.90;;;;;;6219846;23;20094;-62
2022/01/16 11:31:24;;;;;;;7.55;2.83;;;13.80;99.90;;;;;;6246644;23;20057;-62
2022/01/16 11:33:51;;;;;;;6.18;2.33;;;13.80;99.90;;;;;;6246637;23;20429;-62
2022/01/16 11:36:35;;;;;;;3.97;1.95;;;14.00;99.90;;;;;;6246603;23;20053;-63
2022/01/16 11:39:10;;;;;;;6.50;2.08;;;14.10;99.90;;;;;;6246366;23;20008;-63
2022/01/16 11:41:50;;;;;;;7.03;2.72;;;14.20;99.90;;;;;;6246930;23;20022;-62
2022/01/16 11:44:28;;;;;;;3.95;2.17;;;14.20;99.90;;;;;;6246545;23;20051;-62
2022/01/16 11:46:59;;;;;;;5.88;2.40;;;14.30;99.90;;;;;;6246508;23;20004;-63
2022/01/16 11:49:38;;;;;;;4.45;2.13;;;14.40;99.90;;;;;;6246862;23;20035;-63
2022/01/16 11:52:11;;;;;;;5.32;2.05;;;14.50;99.90;;;;;;6246651;23;20376;-64
2022/01/16 11:54:44;;;;;;;4.65;1.98;;;14.50;99.90;;;;;;6246408;23;20004;-63
2022/01/16 11:57:27;;;;;;;9.50;3.78;;;14.60;99.90;;;;;;6246856;23;20000;-64
2022/01/16 12:00:10;;;;;;;11.45;2.83;;;14.70;99.90;;;;;;6246263;23;20008;-64
2022/01/16 12:02:48;;;;;;;6.88;3.03;;;14.70;99.90;;;;;;6256702;23;20023;-63
2022/01/16 12:05:26;;;;;;;4.20;1.90;;;14.70;99.90;;;;;;6246355;23;20027;-64
2022/01/16 12:07:56;;;;;;;8.40;3.88;;;14.70;99.90;;;;;;6246360;23;20004;-64
2022/01/16 12:10:44;;;;;;;9.43;4.32;;;14.70;99.90;;;;;;6246320;23;20459;-63
2022/01/16 12:13:50;;;;;;;6.70;3.08;;;14.60;99.90;;;;;;6246325;23;20514;-63
2022/01/16 12:16:40;;;;;;;9.57;3.75;;;14.50;99.90;;;;;;6094726;23;20354;-64
2022/01/16 12:19:33;;;;;;;7.03;2.85;;;14.50;99.90;;;;;;6094991;23;20479;-63
2022/01/16 12:21:59;;;;;;;9.20;3.63;;;14.30;99.90;;;;;;6071197;23;20061;-63
2022/01/16 12:24:40;;;;;;;9.98;4.72;;;14.20;99.90;;;;;;6095092;23;20010;-64
2022/01/16 12:27:36;;;;;;;14.95;5.75;;;14.20;99.90;;;;;;6098300;23;20573;-63
2022/01/16 12:30:33;;;;;;;3.42;2.20;;;14.20;99.90;;;;;;6077973;23;20106;-64
2022/01/16 12:33:09;;;;;;;8.02;2.10;;;14.20;99.90;;;;;;6098202;23;20018;-64
2022/01/16 12:35:41;;;;;;;5.35;2.42;;;14.10;99.90;;;;;;6098014;23;20437;-63
2022/01/16 12:38:16;;;;;;;6.28;1.88;;;14.00;99.90;;;;;;6097994;23;20467;-64
2022/01/16 12:40:44;;;;;;;;;;;14.00;99.90;;;;;;6098601;23;20014;-63
2022/01/16 12:43:17;;;;;;;5.95;1.73;;;14.00;99.90;;;;;;6098256;23;19908;-63
2022/01/16 12:45:44;;;;;;;5.40;2.25;;;14.00;99.90;;;;;;6098235;23;20010;-63
2022/01/16 12:48:13;;;;;;;4.45;2.38;;;14.00;99.90;;;;;;6217778;23;20362;-63
2022/01/16 12:50:40;;;;;;;5.75;2.35;;;14.00;99.90;;;;;;6219196;23;20008;-63
2022/01/16 12:53:06;;;;;;;6.88;2.45;;;14.00;99.90;;;;;;6219359;23;20004;-63
2022/01/16 12:55:34;;;;;;;6.25;3.38;;;14.00;99.90;;;;;;6219218;23;20050;-63
2022/01/16 12:58:21;;;;;;;8.85;4.25;;;14.10;99.90;;;;;;6219531;23;20009;-63
2022/01/16 13:01:07;;;;;;;9.52;4.72;;;14.10;99.90;;;;;;6219132;23;20023;-64
2022/01/16 13:03:35;;;;;;;3.75;1.90;;;14.20;99.90;;;;;;6219190;23;20072;-63
2022/01/16 13:06:21;;;;;;;5.28;1.77;;;14.20;99.90;;;;;;6219113;23;20015;-64
2022/01/16 13:08:57;;;;;;;9.85;1.98;;;14.20;99.90;;;;;;6219457;23;20005;-63
2022/01/16 13:11:26;;;;;;;3.97;1.73;;;14.10;99.90;;;;;;6219510;23;20330;-63
2022/01/16 13:13:53;;;;;;;4.45;2.30;;;14.00;99.90;;;;;;6219106;23;20028;-63
2022/01/16 13:16:29;;;;;;;6.88;2.22;;;13.90;99.90;;;;;;6242173;23;20011;-65
2022/01/16 13:19:21;;;;;;;22.45;2.60;;;13.80;99.90;;;;;;6249460;23;20024;-64
2022/01/16 13:22:04;;;;;;;9.35;2.17;;;13.80;99.90;;;;;;6249478;23;20044;-65
2022/01/16 13:24:51;;;;;;;5.00;2.17;;;13.70;99.90;;;;;;6222554;23;20008;-64
2022/01/16 13:27:31;;;;;;;6.60;2.55;;;13.60;99.90;;;;;;6249331;23;20456;-64
2022/01/16 13:30:06;;;;;;;3.03;1.70;;;13.60;99.90;;;;;;6249542;23;20007;-64
2022/01/16 13:32:35;;;;;;;5.93;2.00;;;13.50;99.90;;;;;;6249427;23;20012;-64
2022/01/16 13:35:06;;;;;;;4.75;2.38;;;13.50;99.90;;;;;;6249577;23;20000;-64
2022/01/16 13:37:36;;;;;;;5.95;1.90;;;13.60;99.90;;;;;;6221007;23;20011;-64
2022/01/16 13:40:11;;;;;;;8.60;2.33;;;13.60;99.90;;;;;;6247716;23;20020;-64
2022/01/16 13:45:37;;;;;;;2.78;1.42;;;13.70;99.90;;;;;;6248102;23;20004;-64
2022/01/16 13:48:19;;;;;;;3.90;2.03;;;13.70;99.90;;;;;;6220752;23;20016;-64
2022/01/16 13:50:57;;;;;;;3.38;1.85;;;13.60;99.90;;;;;;6247650;23;20029;-64
2022/01/16 13:53:32;;;;;;;4.68;2.22;;;13.50;99.90;;;;;;6247818;23;20011;-64
2022/01/16 13:56:07;;;;;;;16.67;2.58;;;13.50;99.90;;;;;;6247659;23;20010;-64
2022/01/16 13:59:04;;;;;;;7.03;2.35;;;13.40;99.90;;;;;;6247585;23;20015;-64
2022/01/16 14:01:32;;;;;;;11.30;3.75;;;13.40;99.90;;;;;;6125624;23;20018;-64
2022/01/16 14:04:03;;;;;;;3.38;2.08;;;13.30;99.90;;;;;;6125251;23;20013;-64
2022/01/16 14:06:33;;;;;;;5.40;2.42;;;13.20;99.90;;;;;;6125649;23;20109;-64
2022/01/16 14:09:03;;;;;;;14.85;3.55;;;13.20;99.90;;;;;;6125483;23;20392;-64
2022/01/16 14:11:39;;;;;;;5.53;2.58;;;13.10;99.90;;;;;;6125362;23;20002;-64
2022/01/16 14:14:06;;;;;;;7.47;2.25;;;13.00;99.90;;;;;;6125208;23;20014;-64
2022/01/16 14:17:29;;;;;;;5.03;2.47;;;13.10;99.90;;;;;;6099997;23;20019;-64
2022/01/16 14:22:14;;;;;;;4.90;1.90;;;13.20;99.90;;;;;;6096000;23;20010;-64
2022/01/16 14:24:48;;;;;;;10.30;3.33;;;13.20;99.90;;;;;;6095783;23;20352;-64
2022/01/16 14:27:30;;;;;;;7.00;3.58;;;13.20;99.90;;;;;;6095830;23;20103;-64
2022/01/16 14:30:01;;;;;;;7.10;2.40;;;13.20;99.90;;;;;;6095761;23;20011;-64
2022/01/16 14:32:28;;;;;;;3.63;2.08;;;13.20;99.90;;;;;;6096126;23;20149;-64
2022/01/16 14:34:58;;;;;;;5.55;2.15;;;13.20;99.90;;;;;;6096179;23;20449;-64
2022/01/16 14:37:31;;;;;;;7.90;1.70;;;13.20;99.90;;;;;;6132683;23;20009;-64
2022/01/16 14:40:05;;;;;;;5.22;1.70;;;13.20;99.90;;;;;;6216638;23;20040;-64
2022/01/16 14:42:37;;;;;;;4.53;1.58;;;13.20;99.90;;;;;;6216719;23;20035;-64
2022/01/16 14:45:07;;;;;;;2.72;2.10;;;13.20;99.90;;;;;;6217188;23;20028;-64
2022/01/16 14:47:34;;;;;;;5.07;2.35;;;13.20;99.90;;;;;;6190285;23;20011;-64
2022/01/16 14:50:03;;;;;;;10.75;2.28;;;13.10;99.90;;;;;;6216576;23;20012;-65
2022/01/16 14:52:30;;;;;;;3.92;2.28;;;13.10;99.90;;;;;;6216611;23;20019;-63
2022/01/16 14:54:56;;;;;;;4.45;2.10;;;13.00;99.90;;;;;;6216752;23;20083;-64
2022/01/16 14:57:24;;;;;;;7.38;1.83;;;12.90;99.90;;;;;;6190036;23;20451;-64
2022/01/16 14:59:54;;;;;;;2.63;1.90;;;12.90;99.90;;;;;;6216453;23;20016;-65
2022/01/16 15:02:21;;;;;;;5.45;2.58;;;12.80;99.90;;;;;;6189900;23;20028;-64
2022/01/16 15:04:48;;;;;;;6.32;2.58;;;12.70;99.90;;;;;;6216411;23;20487;-64
2022/01/16 15:07:15;;;;;;;7.38;2.75;;;12.70;99.90;;;;;;6216463;23;20438;-64
2022/01/16 15:09:42;;;;;;;6.43;2.65;;;12.60;99.90;;;;;;6216509;23;20465;-64
2022/01/16 15:12:09;;;;;;;3.92;2.50;;;12.60;99.90;;;;;;6216476;23;20012;-64
2022/01/16 15:14:36;;;;;;;13.05;3.65;;;12.50;99.90;;;;;;6217626;23;20085;-64
2022/01/16 15:17:03;;;;;;;4.85;2.70;;;12.40;99.90;;;;;;6247221;23;20054;-64
2022/01/16 15:19:33;;;;;;;12.80;3.45;;;12.30;99.90;;;;;;6246522;23;20018;-64
2022/01/16 15:22:21;;;;;;;7.78;2.85;;;12.30;99.90;;;;;;6246707;23;20023;-64
2022/01/16 15:24:50;;;;;;;3.80;2.85;;;12.30;99.90;;;;;;6246973;23;20058;-64
2022/01/16 15:27:17;;;;;;;6.00;2.42;;;12.20;99.90;;;;;;6246759;23;20004;-64
2022/01/16 15:29:47;;;;;;;8.60;3.35;;;12.10;99.90;;;;;;6219796;23;20081;-71
2022/01/16 15:32:15;;;;;;;7.85;2.60;;;12.10;99.90;;;;;;6247082;23;20000;-64
2022/01/16 15:34:44;;;;;;;5.68;2.53;;;12.00;99.90;;;;;;6246643;23;20008;-64
2022/01/16 15:37:16;;;;;;;6.65;2.70;;;12.00;99.90;;;;;;6246948;23;20414;-64
2022/01/16 15:39:46;;;;;;;11.48;3.10;;;11.90;99.90;;;;;;6246527;23;20008;-64
2022/01/16 15:42:13;;;;;;;7.63;3.08;;;11.80;99.90;;;;;;6246548;23;20008;-64
2022/01/16 15:44:40;;;;;;;4.90;2.72;;;11.80;99.90;;;;;;6246941;23;20003;-64
2022/01/16 15:47:07;;;;;;;9.02;3.67;;;11.70;99.90;;;;;;6246610;23;20008;-64
2022/01/16 15:49:34;;;;;;;8.80;3.38;;;11.60;99.90;;;;;;6219726;23;20015;-64
2022/01/16 15:52:01;;;;;;;13.93;3.63;;;11.60;99.90;;;;;;6246952;23;20000;-64
2022/01/16 15:54:27;;;;;;;8.20;3.85;;;11.50;99.90;;;;;;6246526;23;20000;-64
2022/01/16 15:56:54;;;;;;;10.90;4.05;;;11.40;99.90;;;;;;6246423;23;20008;-64
2022/01/16 15:59:21;;;;;;;12.30;4.55;;;11.40;99.90;;;;;;6246675;23;20004;-64
2022/01/16 16:01:49;;;;;;;11.20;4.20;;;11.40;99.90;;;;;;6246209;23;20083;-64
2022/01/16 16:04:15;;;;;;;14.50;3.95;;;11.30;99.90;;;;;;6246413;23;20004;-64
2022/01/16 16:06:42;;;;;;;13.02;3.70;;;11.20;99.90;;;;;;6246423;23;20031;-64
2022/01/16 16:09:09;;;;;;;10.00;4.57;;;11.20;99.90;;;;;;6246214;23;20000;-64
2022/01/16 16:11:36;;;;;;;10.73;4.35;;;11.10;99.90;;;;;;6246496;23;20437;-64
2022/01/16 16:14:02;;;;;;;8.40;4.85;;;11.10;99.90;;;;;;6246009;23;20079;-64
2022/01/16 16:16:29;;;;;;;8.45;4.50;;;11.00;99.90;;;;;;6246049;23;20051;-64
2022/01/16 16:18:56;;;;;;;16.30;5.47;;;11.00;99.90;;;;;;6246023;23;20008;-64
2022/01/16 16:21:22;;;;;;;9.68;4.63;;;10.90;99.90;;;;;;6246942;23;20024;-65
2022/01/16 16:23:48;;;;;;;11.63;4.35;;;10.90;99.90;;;;;;6246346;23;20000;-65
2022/01/16 16:26:18;;;;;;;7.75;4.03;;;10.80;99.90;;;;;;6246344;23;20012;-64
2022/01/16 16:28:45;;;;;;;9.52;4.20;;;10.80;99.90;;;;;;6246699;23;20004;-65
2022/01/16 16:31:12;;;;;;;11.65;5.45;;;10.70;99.90;;;;;;6246238;23;20023;-64
2022/01/16 16:33:41;;;;;;;8.40;4.72;;;10.70;99.90;;;;;;6246151;23;20004;-64
2022/01/16 16:36:08;;;;;;;10.50;4.57;;;10.60;99.90;;;;;;6246170;23;20015;-64
2022/01/16 16:38:38;;;;;;;11.32;4.63;;;10.60;99.90;;;;;;6246049;23;20394;-64
2022/01/16 16:41:04;;;;;;;11.63;4.57;;;10.60;99.90;;;;;;6245923;23;20024;-64
2022/01/16 16:43:31;;;;;;;12.70;4.63;;;10.50;99.90;;;;;;6246061;23;20007;-64
2022/01/16 16:45:57;;;;;;;13.02;5.25;;;10.40;99.90;;;;;;6246205;23;20008;-64
2022/01/16 16:48:24;;;;;;;15.48;5.82;;;10.40;99.90;;;;;;6246305;23;19996;-64
2022/01/16 16:50:51;;;;;;;16.02;5.28;;;10.40;99.90;;;;;;6246167;23;20059;-64
2022/01/16 16:53:17;;;;;;;15.35;5.10;;;10.40;99.90;;;;;;6245950;23;20010;-64
2022/01/16 16:55:44;;;;;;;20.80;6.20;;;10.40;99.90;;;;;;6246147;23;20015;-64
2022/01/16 16:58:11;;;;;;;12.82;5.20;;;10.30;99.90;;;;;;6246505;23;20022;-64
2022/01/16 17:00:37;;;;;;;14.80;6.43;;;10.20;99.90;;;;;;6245998;23;20024;-64
2022/01/16 17:03:04;;;;;;;12.32;5.38;;;10.30;99.90;;;;;;6245971;23;20004;-64
2022/01/16 17:05:32;;;;;;;16.63;5.85;;;10.20;99.90;;;;;;6245770;23;20008;-64
2022/01/16 17:07:58;;;;;;;17.40;7.05;;;10.20;99.90;;;;;;6246076;23;20197;-64
2022/01/16 17:10:25;;;;;;;20.85;5.70;;;10.20;99.90;;;;;;6246039;23;20046;-64
2022/01/16 17:12:53;;;;;;;11.57;5.13;;;10.10;99.90;;;;;;6246971;23;20001;-64
2022/01/16 17:15:20;;;;;;;12.25;6.70;;;10.10;99.90;;;;;;6248070;23;20074;-64
2022/01/16 17:17:51;;;;;;;15.40;6.47;;;10.00;99.90;;;;;;6247881;23;20010;-64
2022/01/16 17:20:18;;;;;;;13.55;5.72;;;10.00;99.90;;;;;;6247853;23;20312;-64
2022/01/16 17:22:47;;;;;;;14.05;5.63;;;10.00;99.90;;;;;;6247980;23;20326;-64
2022/01/16 17:25:14;;;;;;;19.73;7.15;;;9.90;99.90;;;;;;6247819;23;20011;-64
2022/01/16 17:27:42;;;;;;;20.73;6.90;;;9.90;99.90;;;;;;6247727;23;20004;-64
2022/01/16 17:30:10;;;;;;;23.27;7.60;;;9.90;99.90;;;;;;6221265;23;20007;-64
2022/01/16 17:32:36;;;;;;;19.33;7.53;;;9.90;99.90;;;;;;6247843;23;20311;-64
2022/01/16 17:35:03;;;;;;;17.98;8.05;;;9.90;99.90;;;;;;6247609;23;20008;-64
2022/01/16 17:37:33;;;;;;;23.33;8.50;;;9.80;99.90;;;;;;6247689;23;20004;-63
2022/01/16 17:39:59;;;;;;;15.13;6.97;;;9.80;99.90;;;;;;6247489;23;20007;-63
2022/01/16 17:42:26;;;;;;;20.40;7.57;;;9.80;99.90;;;;;;6247791;23;20015;-63
2022/01/16 17:44:53;;;;;;;19.65;7.32;;;9.70;99.90;;;;;;6247839;23;20007;-63
2022/01/16 17:47:22;;;;;;;13.90;7.00;;;9.70;99.90;;;;;;6247916;23;20008;-64
2022/01/16 17:49:51;;;;;;;17.15;7.40;;;9.70;99.90;;;;;;6220909;23;20032;-63
2022/01/16 17:52:19;;;;;;;22.23;8.35;;;9.60;99.90;;;;;;6247534;23;20028;-64
2022/01/16 17:54:46;;;;;;;21.10;7.53;;;9.60;99.90;;;;;;6247584;23;20007;-63
2022/01/16 17:57:19;;;;;;;17.92;7.43;;;9.60;99.90;;;;;;6221047;23;20008;-64
2022/01/16 17:59:47;;;;;;;23.73;7.87;;;9.60;99.90;;;;;;6247459;23;20016;-64
2022/01/16 18:02:15;;;;;;;18.65;8.18;;;9.60;99.90;;;;;;6247375;23;20015;-64
2022/01/16 18:04:42;;;;;;;15.30;7.20;;;9.60;99.90;;;;;;6247991;23;20015;-64
2022/01/16 18:07:09;;;;;;;28.15;9.50;;;9.60;99.90;;;;;;6247439;23;20000;-63
2022/01/16 18:09:36;;;;;;;21.60;8.32;;;9.60;99.90;;;;;;6247784;23;20433;-63
2022/01/16 18:12:03;;;;;;;23.05;10.30;;;9.60;99.90;;;;;;6247416;23;20106;-62
2022/01/16 18:14:30;;;;;;;25.92;10.35;;;9.50;99.90;;;;;;6247521;23;20011;-62
2022/01/16 18:16:57;;;;;;;24.45;10.85;;;9.50;99.90;;;;;;6216939;23;20016;-63
2022/01/16 18:19:23;;;;;;;33.08;12.27;;;9.50;99.90;;;;;;6217932;23;20058;-62
2022/01/16 18:21:50;;;;;;;24.92;10.90;;;9.40;99.90;;;;;;6190601;23;20023;-62
2022/01/16 18:24:17;;;;;;;25.75;11.13;;;9.40;99.90;;;;;;6217012;23;20000;-62
2022/01/16 18:26:45;;;;;;;25.52;10.38;;;9.40;99.90;;;;;;6217190;23;20016;-63
2022/01/16 18:29:16;;;;;;;26.33;12.18;;;9.40;99.90;;;;;;6217048;23;19997;-62
2022/01/16 18:31:43;;;;;;;31.13;12.45;;;9.40;99.90;;;;;;6216930;23;20009;-62
2022/01/16 18:34:10;;;;;;;25.73;10.82;;;9.30;99.90;;;;;;6217166;23;20005;-63
2022/01/16 18:36:38;;;;;;;21.67;9.25;;;9.30;99.90;;;;;;6217447;23;20326;-62
2022/01/16 18:39:05;;;;;;;22.35;8.40;;;9.30;99.90;;;;;;6216532;23;20331;-62
2022/01/16 18:41:31;;;;;;;20.92;8.73;;;9.20;99.90;;;;;;6216628;23;20016;-62
2022/01/16 18:43:58;;;;;;;25.08;8.88;;;9.20;99.90;;;;;;6190238;23;20423;-63
2022/01/16 18:46:27;;;;;;;19.40;8.90;;;9.20;99.90;;;;;;6217023;23;20054;-62
2022/01/16 18:48:57;;;;;;;21.25;9.80;;;9.20;99.90;;;;;;6216877;23;20008;-63
2022/01/16 18:51:27;;;;;;;22.52;9.52;;;9.20;99.90;;;;;;6217187;23;20422;-62
2022/01/16 18:53:54;;;;;;;22.33;9.98;;;9.10;99.90;;;;;;6217403;23;20031;-62
2022/01/16 18:56:23;;;;;;;25.08;11.32;;;9.10;99.90;;;;;;6217125;23;20008;-63
2022/01/16 18:58:50;;;;;;;30.20;10.77;;;9.10;99.90;;;;;;6217028;23;20054;-62
2022/01/16 19:01:18;;;;;;;24.10;10.73;;;9.10;99.90;;;;;;6217394;23;20066;-65
2022/01/16 19:03:45;;;;;;;27.52;11.25;;;9.10;99.90;;;;;;6217161;23;20008;-63
2022/01/16 19:06:13;;;;;;;33.63;11.77;;;9.10;99.90;;;;;;6217188;23;20027;-63
2022/01/16 19:08:40;;;;;;;26.90;12.02;;;9.10;99.90;;;;;;6217163;23;20054;-63
2022/01/16 19:11:08;;;;;;;33.15;13.30;;;9.10;99.90;;;;;;6216558;23;20001;-63
2022/01/16 19:13:36;;;;;;;33.85;12.73;;;9.20;99.90;;;;;;6216890;23;20008;-63
2022/01/16 19:16:03;;;;;;;37.65;13.45;;;9.10;99.90;;;;;;6235114;22;20026;-63
2022/01/16 19:18:32;;;;;;;37.20;16.55;;;9.10;99.90;;;;;;6247454;23;20000;-63
2022/01/16 19:20:59;;;;;;;41.90;19.02;;;9.00;99.90;;;;;;6247198;22;20019;-63
2022/01/16 19:23:25;;;;;;;38.25;18.27;;;8.90;99.90;;;;;;6194983;23;20087;-63
2022/01/16 19:25:52;;;;;;;51.25;20.20;;;8.80;99.90;;;;;;6246882;23;20076;-63
2022/01/16 19:28:18;;;;;;;48.38;21.67;;;8.90;99.90;;;;;;6246597;23;20014;-63
2022/01/16 19:30:45;;;;;;;44.83;21.60;;;8.90;99.90;;;;;;6247829;23;20007;-63
2022/01/16 19:33:12;;;;;;;53.67;21.75;;;8.90;99.90;;;;;;6247559;23;20004;-63
2022/01/16 19:35:39;;;;;;;53.47;21.98;;;8.90;99.90;;;;;;6246828;23;20011;-63
2022/01/16 19:38:05;;;;;;;51.72;22.13;;;8.80;99.90;;;;;;6246797;23;20012;-63
2022/01/16 19:40:34;;;;;;;44.53;18.77;;;8.90;99.90;;;;;;6246490;23;20016;-63
2022/01/16 19:43:10;;;;;;;52.13;19.73;;;8.80;99.90;;;;;;6247062;23;20026;-63
2022/01/16 19:45:43;;;;;;;55.20;22.15;;;8.80;99.90;;;;;;6246868;23;20008;-63
2022/01/16 19:48:12;;;;;;;49.75;20.20;;;8.80;99.90;;;;;;6247540;23;20027;-63
2022/01/16 19:50:40;;;;;;;54.30;20.20;;;8.70;99.90;;;;;;6246846;23;20004;-63
2022/01/16 19:53:07;;;;;;;46.17;19.85;;;8.70;99.90;;;;;;6246898;23;20015;-63
2022/01/16 19:55:34;;;;;;;60.55;23.65;;;8.70;99.90;;;;;;6246742;23;20011;-63
2022/01/16 19:58:02;;;;;;;50.85;23.17;;;8.70;99.90;;;;;;6246447;23;20027;-63
2022/01/16 20:00:30;;;;;;;57.60;23.77;;;8.70;99.90;;;;;;6246643;23;20015;-64
2022/01/16 20:02:58;;;;;;;56.08;23.15;;;8.60;99.90;;;;;;6247229;23;20012;-65
2022/01/16 20:05:25;;;;;;;72.45;23.25;;;8.60;99.90;;;;;;6221368;23;20007;-65
2022/01/16 20:07:52;;;;;;;59.80;23.55;;;8.60;99.90;;;;;;6247165;23;20087;-65
2022/01/16 20:10:19;;;;;;;62.53;23.42;;;8.50;99.90;;;;;;6246267;23;20011;-65
2022/01/16 20:12:46;;;;;;;53.03;25.58;;;8.50;99.90;;;;;;6246364;23;20015;-65
2022/01/16 20:15:20;;;;;;;56.88;25.98;;;8.50;99.90;;;;;;6246774;23;20016;-65
2022/01/16 20:17:52;;;;;;;62.30;25.30;;;8.50;99.90;;;;;;6246424;23;20004;-65
2022/01/16 20:20:24;;;;;;;62.17;25.77;;;8.40;99.90;;;;;;6246229;23;20043;-65
2022/01/16 20:22:58;;;;;;;65.95;25.35;;;8.40;99.90;;;;;;6246249;23;20330;-65
2022/01/16 20:25:28;;;;;;;56.60;24.38;;;8.40;99.90;;;;;;6246654;23;20008;-65
2022/01/16 20:27:55;;;;;;;57.45;25.67;;;8.40;99.90;;;;;;6246326;23;20000;-65
2022/01/16 20:30:33;;;;;;;55.30;23.40;;;8.40;99.90;;;;;;6246571;23;20043;-65
2022/01/16 20:33:01;;;;;;;55.67;23.63;;;8.30;99.90;;;;;;6246085;23;20031;-65
2022/01/16 20:35:28;;;;;;;52.00;22.80;;;8.30;99.90;;;;;;6246587;23;20008;-65
2022/01/16 20:38:00;;;;;;;53.03;21.27;;;8.30;99.90;;;;;;6246623;23;20087;-65
2022/01/16 20:40:29;;;;;;;48.13;21.20;;;8.20;99.90;;;;;;6246004;23;20011;-65
2022/01/16 20:42:59;;;;;;;46.03;21.30;;;8.20;99.90;;;;;;6219327;23;20089;-65
2022/01/16 20:45:26;;;;;;;57.63;20.88;;;8.20;99.90;;;;;;6246184;23;20010;-66
2022/01/16 20:47:54;;;;;;;49.55;20.70;;;8.10;99.90;;;;;;6248035;23;20114;-66
2022/01/16 20:50:20;;;;;;;54.03;22.10;;;8.10;99.90;;;;;;6248530;23;20347;-65
2022/01/16 20:52:47;;;;;;;55.40;22.70;;;8.00;99.90;;;;;;6248075;23;20008;-65
2022/01/16 20:55:13;;;;;;;55.95;23.73;;;7.90;99.90;;;;;;6248191;23;20000;-65
2022/01/16 20:57:40;;;;;;;58.10;23.08;;;7.90;99.90;;;;;;6248027;23;20018;-66
2022/01/16 21:00:09;;;;;;;63.63;22.70;;;7.90;99.90;;;;;;6247962;23;20012;-65
2022/01/16 21:02:36;;;;;;;55.30;21.40;;;7.90;99.90;;;;;;6248216;23;20000;-65
2022/01/16 21:05:06;;;;;;;54.33;20.60;;;7.90;99.90;;;;;;6248125;23;20000;-65
2022/01/16 21:07:37;;;;;;;57.92;22.65;;;7.80;99.90;;;;;;6248038;23;20426;-66
2022/01/16 21:10:06;;;;;;;44.72;20.00;;;7.80;99.90;;;;;;6248133;23;20071;-66
2022/01/16 21:12:34;;;;;;;58.25;19.83;;;7.80;99.90;;;;;;6247843;23;20427;-66
2022/01/16 21:15:04;;;;;;;64.90;22.38;;;7.70;99.90;;;;;;6247728;23;20016;-66
2022/01/16 21:17:33;;;;;;;45.70;20.63;;;7.60;99.90;;;;;;6196047;23;20035;-66
2022/01/16 21:20:08;;;;;;;51.20;18.13;;;7.60;99.90;;;;;;6248114;23;20318;-66
2022/01/16 21:22:35;;;;;;;51.25;19.90;;;7.50;99.90;;;;;;6247881;23;20008;-65
2022/01/16 21:25:02;;;;;;;56.35;20.80;;;7.50;99.90;;;;;;6221256;23;20322;-66
2022/01/16 21:27:29;;;;;;;47.35;18.63;;;7.50;99.90;;;;;;6248257;23;20011;-65
2022/01/16 21:29:56;;;;;;;48.70;18.65;;;7.40;99.90;;;;;;6247869;23;20360;-65
2022/01/16 21:32:22;;;;;;;45.05;18.38;;;7.40;99.90;;;;;;6248176;23;20028;-66
2022/01/16 21:34:50;;;;;;;48.58;17.77;;;7.40;99.90;;;;;;6247994;23;20007;-65
2022/01/16 21:37:20;;;;;;;45.03;16.83;;;7.40;99.90;;;;;;6247730;23;20433;-65
2022/01/16 21:39:49;;;;;;;44.85;17.67;;;7.40;99.90;;;;;;6247429;23;20007;-66
2022/01/16 21:42:17;;;;;;;42.15;17.20;;;7.30;99.90;;;;;;6247670;23;20063;-66
2022/01/16 21:44:43;;;;;;;40.03;16.88;;;7.30;99.90;;;;;;6247619;23;20038;-65
2022/01/16 21:47:11;;;;;;;37.45;16.50;;;7.30;99.90;;;;;;6247780;23;20358;-66
2022/01/16 21:49:38;;;;;;;45.22;17.50;;;7.30;99.90;;;;;;6247650;23;20381;-66
2022/01/16 21:52:14;;;;;;;47.63;17.02;;;7.30;99.90;;;;;;6220947;23;20063;-66
2022/01/16 21:54:41;;;;;;;49.58;17.73;;;7.20;99.90;;;;;;6247636;23;20004;-66
2022/01/16 21:57:08;;;;;;;49.00;17.45;;;7.20;99.90;;;;;;6247683;23;20444;-65
2022/01/16 21:59:35;;;;;;;41.13;17.70;;;7.30;99.90;;;;;;6247027;23;20011;-65
2022/01/16 22:02:02;;;;;;;47.67;17.20;;;7.20;99.90;;;;;;6247663;23;20012;-66
2022/01/16 22:04:30;;;;;;;42.75;15.45;;;7.20;99.90;;;;;;6247556;23;20003;-65
2022/01/16 22:06:57;;;;;;;43.00;17.40;;;7.20;99.90;;;;;;6247496;23;20004;-66
2022/01/16 22:09:24;;;;;;;40.25;17.15;;;7.20;99.90;;;;;;6247536;23;20012;-65
2022/01/16 22:11:57;;;;;;;41.70;16.80;;;7.10;99.90;;;;;;6220851;23;20387;-65
2022/01/16 22:14:27;;;;;;;50.15;18.20;;;7.10;99.90;;;;;;6220664;23;20438;-65
2022/01/16 22:16:54;;;;;;;42.72;16.60;;;7.10;99.90;;;;;;6247223;23;20047;-65
2022/01/16 22:19:23;;;;;;;41.40;17.92;;;7.10;99.90;;;;;;6247646;23;20004;-65
2022/01/16 22:21:50;;;;;;;51.72;18.45;;;7.10;99.90;;;;;;6220568;23;20039;-65
2022/01/16 22:24:17;;;;;;;38.17;16.73;;;7.00;99.90;;;;;;6220621;23;20000;-65
2022/01/16 22:26:44;;;;;;;47.92;18.45;;;7.00;99.90;;;;;;6247320;23;20053;-66
2022/01/16 22:29:13;;;;;;;46.42;18.33;;;6.90;99.90;;;;;;6247288;23;20080;-65
2022/01/16 22:31:41;;;;;;;42.75;18.92;;;6.90;99.90;;;;;;6247250;23;20004;-65
2022/01/16 22:34:09;;;;;;;47.75;19.70;;;6.80;99.90;;;;;;6247135;23;20011;-65
2022/01/16 22:36:35;;;;;;;49.55;20.52;;;6.80;99.90;;;;;;6247679;23;20016;-65
2022/01/16 22:39:02;;;;;;;44.63;18.63;;;6.70;99.90;;;;;;6247755;23;19996;-71
2022/01/16 22:41:30;;;;;;;64.25;21.52;;;6.70;99.90;;;;;;6247259;23;20023;-74
2022/01/16 22:43:57;;;;;;;74.55;23.63;;;6.70;99.90;;;;;;6247124;23;20001;-71
2022/01/16 22:46:26;;;;;;;66.75;22.25;;;6.60;99.90;;;;;;6220977;23;20004;-72
2022/01/16 22:48:54;;;;;;;70.15;24.08;;;6.50;99.90;;;;;;6247331;23;20000;-72
2022/01/16 22:51:22;;;;;;;71.10;23.15;;;6.50;99.90;;;;;;6220162;23;20015;-72
2022/01/16 22:53:48;;;;;;;72.45;24.52;;;6.50;99.90;;;;;;6247137;23;20004;-72
2022/01/16 22:56:15;;;;;;;73.47;25.90;;;6.40;99.90;;;;;;6247027;23;20011;-70
2022/01/16 22:58:42;;;;;;;95.20;27.30;;;6.40;99.90;;;;;;6247054;23;20000;-72
2022/01/16 23:01:10;;;;;;;69.28;24.15;;;6.30;99.90;;;;;;6246844;23;20012;-72
2022/01/16 23:03:36;;;;;;;56.83;23.02;;;6.20;99.90;;;;;;6246848;23;20330;-71
2022/01/16 23:06:05;;;;;;;58.08;22.80;;;6.10;99.90;;;;;;6247022;23;20012;-71
2022/01/16 23:08:33;;;;;;;66.63;24.17;;;6.10;99.90;;;;;;6247008;23;20000;-72
2022/01/16 23:11:00;;;;;;;63.20;22.70;;;6.10;99.90;;;;;;6246783;23;20004;-72
2022/01/16 23:13:27;;;;;;;60.05;23.45;;;6.10;99.90;;;;;;6220192;23;20028;-72
2022/01/16 23:15:54;;;;;;;56.85;23.05;;;6.10;99.90;;;;;;6246780;23;20020;-72
2022/01/16 23:18:20;;;;;;;61.75;24.05;;;6.00;99.90;;;;;;6247266;23;20429;-72
2022/01/16 23:20:49;;;;;;;56.38;23.65;;;5.90;99.90;;;;;;6219954;23;20087;-72